Aérodrome :
LOGIN :

S'inscrire | Disclaimer

   EN    FR    IT 

 










Légende :    VFR   VFR Marginal   IFR   IFR Intensif   IFR Très Intensif
Visi : 
Plafond : 
>= 8 km
>= 3000ft
5 à 8 km
1000 à 3000 ft
1500m à 5 km
500 à 1000 ft
800 à 1500m
200 à 500 ft
< 800m
< 200 ft
Symboles :   Orages  Brouillard  Fortes neiges  Fortes précipitations  Vent > 20 kt
SIGMETs :   Divers  Orages  Givrage  Turbulence  Onde Orograph.  Cendres Volcan.






- Altitude de l'aérodrome : 32 ft
- Code IATA : LKZ


EGUL - RAF Lakenheath

DERNIER METAR :
  • 090856Z 25014KT 9999 FEW028 BKN036 05/05 A2953 RMK AO2A SLP004 T00520051 52016 $

METARs EXPIRÉS :
  • 090756Z 27010KT 9999 OVC043 05/05 A2951 RMK AO2A SLP997 T00520051 $
  • 090656Z 25008KT 9999 FEW032 BKN050 05/04 A2949 RMK AO2A SLP990 T00450044 $

TAF TAF EGUL
Valide du 09 à 06h jusqu'au 10 à 12h UTC


090600Z 0906/1012 25010G15KT 9999 SCT025 BKN045 620453 QNH2948INS
BECMG 0911/0912 23010G15KT 9999 SCT020 SCT120 QNH2944INS
BECMG 0917/0918 18012KT 9999 BKN020 BKN120 620407 QNH2936INS
BECMG 0919/0920 16012KT 8000 -SHRA BKN015 BKN100 610405 QNH2918INS
BECMG 0923/0924 26010G15KT 6000 -SHRA BKN010 610306 QNH2919INS
TEMPO 1002/1005 BKN015
BECMG 1004/1005 30012G18KT 9999 NSW SCT015 QNH2924INS
TEMPO 1010/1012 30015G25KT TX07/0912Z TN03/0918Z



MET'MAP, la Météo Aéronautique d'un coup d'oeil ! - Copyright ORBIFLY Décembre 2007 - Disclaimer

ORBIFLY MET'MAP TEAM :

Programmation & Développement : Alexandra Zaïnal
Sur une idée originale de : Baudouin d'Aumeries
Assistance à la programmation : Marc-Olivier Méhu
Soutien technique & logistique : Manuel Goepfert

Contact : metmap@orbifly.com




SOURCES & CREDITS :

   NOAA